Aviation Digital Data Service (ADDS)

Output produced by METARs form (0845 UTC 21 October 2018)
found at http://aviationweather.gov/metar/data/
 
KLFK 210753Z AUTO 35003KT 10SM CLR 13/12 A3025 RMK AO2 SLP240 T01280117
KLFK 210703Z 2107/2206 36005KT P6SM SKC 
     TEMPO 2107/2110 4SM BR OVC002 
     FM211400 05013G19KT P6SM SCT250 
     FM212000 03007KT P6SM SCT250 
     FM220000 02003KT P6SM SCT250